sensor_id;sensor_type;location;lat;lon;timestamp;P1;durP1;ratioP1;P2;durP2;ratioP2
13483;SDS011;6814;57.786;12.080;2023-09-08T00:02:03;15.00;;;11.27;;
13483;SDS011;6814;57.786;12.080;2023-09-08T00:04:30;16.60;;;12.13;;
13483;SDS011;6814;57.786;12.080;2023-09-08T00:06:58;21.87;;;13.00;;
13483;SDS011;6814;57.786;12.080;2023-09-08T00:09:24;17.97;;;12.23;;
13483;SDS011;6814;57.786;12.080;2023-09-08T00:11:52;15.53;;;12.20;;
13483;SDS011;6814;57.786;12.080;2023-09-08T00:14:19;15.53;;;11.80;;
13483;SDS011;6814;57.786;12.080;2023-09-08T00:16:45;16.97;;;12.13;;
13483;SDS011;6814;57.786;12.080;2023-09-08T00:19:12;18.23;;;12.47;;
13483;SDS011;6814;57.786;12.080;2023-09-08T00:21:38;14.57;;;12.10;;
13483;SDS011;6814;57.786;12.080;2023-09-08T00:24:05;15.40;;;12.67;;
13483;SDS011;6814;57.786;12.080;2023-09-08T00:26:32;16.57;;;12.60;;
13483;SDS011;6814;57.786;12.080;2023-09-08T00:28:59;14.83;;;12.83;;
13483;SDS011;6814;57.786;12.080;2023-09-08T00:31:26;15.17;;;12.17;;
13483;SDS011;6814;57.786;12.080;2023-09-08T00:33:52;18.27;;;12.67;;
13483;SDS011;6814;57.786;12.080;2023-09-08T00:36:19;18.53;;;14.00;;
13483;SDS011;6814;57.786;12.080;2023-09-08T00:38:45;14.87;;;12.40;;
13483;SDS011;6814;57.786;12.080;2023-09-08T00:41:11;16.77;;;13.87;;
13483;SDS011;6814;57.786;12.080;2023-09-08T00:43:38;17.90;;;13.33;;
13483;SDS011;6814;57.786;12.080;2023-09-08T00:46:05;19.57;;;13.97;;
13483;SDS011;6814;57.786;12.080;2023-09-08T00:48:32;16.03;;;13.33;;
13483;SDS011;6814;57.786;12.080;2023-09-08T00:50:59;22.03;;;14.03;;
13483;SDS011;6814;57.786;12.080;2023-09-08T00:53:26;15.60;;;13.43;;
13483;SDS011;6814;57.786;12.080;2023-09-08T00:55:52;17.97;;;13.77;;
13483;SDS011;6814;57.786;12.080;2023-09-08T00:58:19;18.20;;;13.53;;
13483;SDS011;6814;57.786;12.080;2023-09-08T01:00:45;18.37;;;14.47;;
13483;SDS011;6814;57.786;12.080;2023-09-08T01:03:13;19.50;;;14.20;;
13483;SDS011;6814;57.786;12.080;2023-09-08T01:05:40;20.37;;;13.90;;
13483;SDS011;6814;57.786;12.080;2023-09-08T01:08:06;19.60;;;14.30;;
13483;SDS011;6814;57.786;12.080;2023-09-08T01:10:33;19.63;;;14.60;;
13483;SDS011;6814;57.786;12.080;2023-09-08T01:12:59;21.83;;;14.67;;
13483;SDS011;6814;57.786;12.080;2023-09-08T01:15:26;19.30;;;14.13;;
13483;SDS011;6814;57.786;12.080;2023-09-08T01:17:52;19.47;;;14.70;;
13483;SDS011;6814;57.786;12.080;2023-09-08T01:20:23;20.03;;;15.53;;
13483;SDS011;6814;57.786;12.080;2023-09-08T01:23:03;23.37;;;15.67;;
13483;SDS011;6814;57.786;12.080;2023-09-08T01:25:38;20.57;;;14.37;;
13483;SDS011;6814;57.786;12.080;2023-09-08T01:28:06;25.43;;;16.17;;
13483;SDS011;6814;57.786;12.080;2023-09-08T01:30:33;22.63;;;14.80;;
13483;SDS011;6814;57.786;12.080;2023-09-08T01:33:00;22.87;;;15.53;;
13483;SDS011;6814;57.786;12.080;2023-09-08T01:35:26;21.73;;;16.20;;
13483;SDS011;6814;57.786;12.080;2023-09-08T01:37:53;21.40;;;15.10;;
13483;SDS011;6814;57.786;12.080;2023-09-08T01:40:19;23.60;;;15.50;;
13483;SDS011;6814;57.786;12.080;2023-09-08T01:42:48;27.43;;;16.53;;
13483;SDS011;6814;57.786;12.080;2023-09-08T01:45:14;23.23;;;16.20;;
13483;SDS011;6814;57.786;12.080;2023-09-08T01:47:41;21.00;;;15.70;;
13483;SDS011;6814;57.786;12.080;2023-09-08T01:50:07;17.80;;;15.17;;
13483;SDS011;6814;57.786;12.080;2023-09-08T01:52:34;21.73;;;16.53;;
13483;SDS011;6814;57.786;12.080;2023-09-08T01:55:00;23.40;;;16.37;;
13483;SDS011;6814;57.786;12.080;2023-09-08T01:57:27;26.97;;;15.93;;
13483;SDS011;6814;57.786;12.080;2023-09-08T01:59:54;25.53;;;17.70;;
13483;SDS011;6814;57.786;12.080;2023-09-08T02:02:21;26.50;;;17.17;;
13483;SDS011;6814;57.786;12.080;2023-09-08T02:04:47;24.03;;;16.70;;
13483;SDS011;6814;57.786;12.080;2023-09-08T02:07:14;25.77;;;15.80;;
13483;SDS011;6814;57.786;12.080;2023-09-08T02:09:40;20.87;;;15.40;;
13483;SDS011;6814;57.786;12.080;2023-09-08T02:12:07;30.20;;;18.13;;
13483;SDS011;6814;57.786;12.080;2023-09-08T02:14:33;25.27;;;17.90;;
13483;SDS011;6814;57.786;12.080;2023-09-08T02:17:01;33.17;;;18.50;;
13483;SDS011;6814;57.786;12.080;2023-09-08T02:19:28;30.47;;;18.83;;
13483;SDS011;6814;57.786;12.080;2023-09-08T02:21:54;26.77;;;18.33;;
13483;SDS011;6814;57.786;12.080;2023-09-08T02:24:21;28.57;;;18.63;;
13483;SDS011;6814;57.786;12.080;2023-09-08T02:26:47;28.60;;;17.87;;
13483;SDS011;6814;57.786;12.080;2023-09-08T02:29:13;25.87;;;18.17;;
13483;SDS011;6814;57.786;12.080;2023-09-08T02:31:40;30.43;;;19.07;;
13483;SDS011;6814;57.786;12.080;2023-09-08T02:34:08;30.50;;;18.37;;
13483;SDS011;6814;57.786;12.080;2023-09-08T02:36:34;28.80;;;18.53;;
13483;SDS011;6814;57.786;12.080;2023-09-08T02:39:00;29.77;;;18.63;;
13483;SDS011;6814;57.786;12.080;2023-09-08T02:41:27;25.93;;;18.33;;
13483;SDS011;6814;57.786;12.080;2023-09-08T02:43:53;33.20;;;19.90;;
13483;SDS011;6814;57.786;12.080;2023-09-08T02:46:19;36.80;;;20.00;;
13483;SDS011;6814;57.786;12.080;2023-09-08T02:48:46;31.70;;;19.73;;
13483;SDS011;6814;57.786;12.080;2023-09-08T02:51:13;29.57;;;20.10;;
13483;SDS011;6814;57.786;12.080;2023-09-08T02:53:40;30.93;;;19.73;;
13483;SDS011;6814;57.786;12.080;2023-09-08T02:56:06;31.03;;;20.37;;
13483;SDS011;6814;57.786;12.080;2023-09-08T02:58:34;39.10;;;21.97;;
13483;SDS011;6814;57.786;12.080;2023-09-08T03:01:09;56.87;;;25.87;;
13483;SDS011;6814;57.786;12.080;2023-09-08T03:03:35;79.63;;;25.77;;
13483;SDS011;6814;57.786;12.080;2023-09-08T03:06:02;132.07;;;29.13;;
13483;SDS011;6814;57.786;12.080;2023-09-08T03:08:30;47.40;;;24.20;;
13483;SDS011;6814;57.786;12.080;2023-09-08T03:10:56;130.77;;;27.30;;
13483;SDS011;6814;57.786;12.080;2023-09-08T03:13:23;226.47;;;30.37;;
13483;SDS011;6814;57.786;12.080;2023-09-08T03:15:51;135.37;;;27.37;;
13483;SDS011;6814;57.786;12.080;2023-09-08T03:18:17;156.57;;;28.07;;
13483;SDS011;6814;57.786;12.080;2023-09-08T03:20:47;275.83;;;31.67;;
13483;SDS011;6814;57.786;12.080;2023-09-08T03:23:13;274.70;;;31.53;;
13483;SDS011;6814;57.786;12.080;2023-09-08T03:25:41;199.60;;;29.17;;
13483;SDS011;6814;57.786;12.080;2023-09-08T03:28:07;525.63;;;37.17;;
13483;SDS011;6814;57.786;12.080;2023-09-08T03:30:34;247.47;;;32.27;;
13483;SDS011;6814;57.786;12.080;2023-09-08T03:33:00;345.60;;;32.07;;
13483;SDS011;6814;57.786;12.080;2023-09-08T03:35:27;351.13;;;33.80;;
13483;SDS011;6814;57.786;12.080;2023-09-08T03:37:53;221.73;;;31.67;;
13483;SDS011;6814;57.786;12.080;2023-09-08T03:40:19;85.30;;;24.53;;
13483;SDS011;6814;57.786;12.080;2023-09-08T03:42:47;72.17;;;24.83;;
13483;SDS011;6814;57.786;12.080;2023-09-08T03:45:14;88.93;;;27.00;;
13483;SDS011;6814;57.786;12.080;2023-09-08T03:47:40;107.37;;;25.50;;
13483;SDS011;6814;57.786;12.080;2023-09-08T03:50:07;168.97;;;27.87;;
13483;SDS011;6814;57.786;12.080;2023-09-08T03:52:35;449.90;;;33.80;;
13483;SDS011;6814;57.786;12.080;2023-09-08T03:55:01;142.23;;;24.90;;
13483;SDS011;6814;57.786;12.080;2023-09-08T03:57:27;278.53;;;31.40;;
13483;SDS011;6814;57.786;12.080;2023-09-08T03:59:55;209.23;;;26.60;;
13483;SDS011;6814;57.786;12.080;2023-09-08T04:02:21;311.37;;;29.47;;
13483;SDS011;6814;57.786;12.080;2023-09-08T04:04:48;380.33;;;30.47;;
13483;SDS011;6814;57.786;12.080;2023-09-08T04:07:14;263.63;;;27.97;;
13483;SDS011;6814;57.786;12.080;2023-09-08T04:09:41;281.27;;;29.60;;
13483;SDS011;6814;57.786;12.080;2023-09-08T04:12:07;369.53;;;30.27;;
13483;SDS011;6814;57.786;12.080;2023-09-08T04:14:36;188.40;;;24.30;;
13483;SDS011;6814;57.786;12.080;2023-09-08T04:17:04;217.97;;;25.53;;
13483;SDS011;6814;57.786;12.080;2023-09-08T04:19:30;218.17;;;25.07;;
13483;SDS011;6814;57.786;12.080;2023-09-08T04:21:56;318.43;;;28.13;;
13483;SDS011;6814;57.786;12.080;2023-09-08T04:24:23;298.73;;;27.23;;
13483;SDS011;6814;57.786;12.080;2023-09-08T04:26:49;322.73;;;26.43;;
13483;SDS011;6814;57.786;12.080;2023-09-08T04:29:15;330.17;;;27.87;;
13483;SDS011;6814;57.786;12.080;2023-09-08T04:31:42;361.27;;;28.20;;
13483;SDS011;6814;57.786;12.080;2023-09-08T04:34:10;493.53;;;32.13;;
13483;SDS011;6814;57.786;12.080;2023-09-08T04:36:36;308.10;;;25.60;;
13483;SDS011;6814;57.786;12.080;2023-09-08T04:39:03;407.07;;;26.60;;
13483;SDS011;6814;57.786;12.080;2023-09-08T04:41:29;257.50;;;23.70;;
13483;SDS011;6814;57.786;12.080;2023-09-08T04:43:56;297.03;;;25.90;;
13483;SDS011;6814;57.786;12.080;2023-09-08T04:46:23;100.30;;;19.40;;
13483;SDS011;6814;57.786;12.080;2023-09-08T04:48:49;238.83;;;25.37;;
13483;SDS011;6814;57.786;12.080;2023-09-08T04:51:17;237.93;;;23.93;;
13483;SDS011;6814;57.786;12.080;2023-09-08T04:53:43;276.17;;;22.37;;
13483;SDS011;6814;57.786;12.080;2023-09-08T04:56:10;253.90;;;24.03;;
13483;SDS011;6814;57.786;12.080;2023-09-08T04:58:36;321.83;;;26.30;;
13483;SDS011;6814;57.786;12.080;2023-09-08T05:01:03;333.37;;;26.60;;
13483;SDS011;6814;57.786;12.080;2023-09-08T05:03:30;346.47;;;25.27;;
13483;SDS011;6814;57.786;12.080;2023-09-08T05:05:56;280.20;;;25.73;;
13483;SDS011;6814;57.786;12.080;2023-09-08T05:08:24;477.73;;;28.87;;
13483;SDS011;6814;57.786;12.080;2023-09-08T05:10:51;371.73;;;25.10;;
13483;SDS011;6814;57.786;12.080;2023-09-08T05:13:17;328.53;;;23.80;;
13483;SDS011;6814;57.786;12.080;2023-09-08T05:15:44;309.23;;;24.50;;
13483;SDS011;6814;57.786;12.080;2023-09-08T05:18:13;371.07;;;28.53;;
13483;SDS011;6814;57.786;12.080;2023-09-08T05:20:40;346.40;;;25.17;;
13483;SDS011;6814;57.786;12.080;2023-09-08T05:23:06;398.03;;;28.63;;
13483;SDS011;6814;57.786;12.080;2023-09-08T05:25:34;280.53;;;24.67;;
13483;SDS011;6814;57.786;12.080;2023-09-08T05:28:00;262.00;;;24.70;;
13483;SDS011;6814;57.786;12.080;2023-09-08T05:30:27;364.43;;;26.53;;
13483;SDS011;6814;57.786;12.080;2023-09-08T05:32:53;426.90;;;28.13;;
13483;SDS011;6814;57.786;12.080;2023-09-08T05:35:20;277.67;;;25.10;;
13483;SDS011;6814;57.786;12.080;2023-09-08T05:37:46;288.90;;;25.70;;
13483;SDS011;6814;57.786;12.080;2023-09-08T05:40:12;234.90;;;24.67;;
13483;SDS011;6814;57.786;12.080;2023-09-08T05:42:40;359.40;;;29.40;;
13483;SDS011;6814;57.786;12.080;2023-09-08T05:45:07;230.80;;;24.03;;
13483;SDS011;6814;57.786;12.080;2023-09-08T05:47:33;289.13;;;26.13;;
13483;SDS011;6814;57.786;12.080;2023-09-08T05:50:01;231.03;;;25.83;;
13483;SDS011;6814;57.786;12.080;2023-09-08T05:52:27;362.53;;;27.80;;
13483;SDS011;6814;57.786;12.080;2023-09-08T05:54:54;411.17;;;30.30;;
13483;SDS011;6814;57.786;12.080;2023-09-08T05:57:20;390.03;;;29.50;;
13483;SDS011;6814;57.786;12.080;2023-09-08T05:59:48;403.53;;;29.20;;
13483;SDS011;6814;57.786;12.080;2023-09-08T06:02:14;440.40;;;31.93;;
13483;SDS011;6814;57.786;12.080;2023-09-08T06:04:41;191.47;;;22.57;;
13483;SDS011;6814;57.786;12.080;2023-09-08T06:07:07;497.67;;;33.30;;
13483;SDS011;6814;57.786;12.080;2023-09-08T06:09:33;435.27;;;27.63;;
13483;SDS011;6814;57.786;12.080;2023-09-08T06:12:00;245.87;;;24.53;;
13483;SDS011;6814;57.786;12.080;2023-09-08T06:14:26;529.60;;;33.10;;
13483;SDS011;6814;57.786;12.080;2023-09-08T06:16:54;486.13;;;33.30;;
13483;SDS011;6814;57.786;12.080;2023-09-08T06:19:20;298.47;;;24.97;;
13483;SDS011;6814;57.786;12.080;2023-09-08T06:21:47;385.40;;;27.17;;
13483;SDS011;6814;57.786;12.080;2023-09-08T06:24:13;462.37;;;28.93;;
13483;SDS011;6814;57.786;12.080;2023-09-08T06:26:39;287.70;;;24.80;;
13483;SDS011;6814;57.786;12.080;2023-09-08T06:29:07;672.57;;;38.90;;
13483;SDS011;6814;57.786;12.080;2023-09-08T06:31:34;281.40;;;26.63;;
13483;SDS011;6814;57.786;12.080;2023-09-08T06:34:01;417.57;;;30.17;;
13483;SDS011;6814;57.786;12.080;2023-09-08T06:36:28;515.70;;;33.03;;
13483;SDS011;6814;57.786;12.080;2023-09-08T06:38:54;398.93;;;31.10;;
13483;SDS011;6814;57.786;12.080;2023-09-08T06:41:20;85.30;;;19.10;;
13483;SDS011;6814;57.786;12.080;2023-09-08T06:43:48;128.10;;;18.87;;
13483;SDS011;6814;57.786;12.080;2023-09-08T06:46:14;144.37;;;20.10;;
13483;SDS011;6814;57.786;12.080;2023-09-08T06:48:40;148.67;;;20.20;;
13483;SDS011;6814;57.786;12.080;2023-09-08T06:51:08;57.17;;;17.03;;
13483;SDS011;6814;57.786;12.080;2023-09-08T06:53:35;103.77;;;18.40;;
13483;SDS011;6814;57.786;12.080;2023-09-08T06:56:02;123.90;;;19.27;;
13483;SDS011;6814;57.786;12.080;2023-09-08T06:58:28;50.80;;;17.80;;
13483;SDS011;6814;57.786;12.080;2023-09-08T07:00:54;118.97;;;19.70;;
13483;SDS011;6814;57.786;12.080;2023-09-08T07:03:21;62.70;;;17.27;;
13483;SDS011;6814;57.786;12.080;2023-09-08T07:05:47;137.53;;;19.87;;
13483;SDS011;6814;57.786;12.080;2023-09-08T07:08:15;62.53;;;17.83;;
13483;SDS011;6814;57.786;12.080;2023-09-08T07:10:43;58.27;;;18.67;;
13483;SDS011;6814;57.786;12.080;2023-09-08T07:13:09;32.10;;;18.20;;
13483;SDS011;6814;57.786;12.080;2023-09-08T07:15:35;36.13;;;18.33;;
13483;SDS011;6814;57.786;12.080;2023-09-08T07:18:02;62.03;;;18.33;;
13483;SDS011;6814;57.786;12.080;2023-09-08T07:20:28;29.37;;;18.27;;
13483;SDS011;6814;57.786;12.080;2023-09-08T07:22:55;31.83;;;19.03;;
13483;SDS011;6814;57.786;12.080;2023-09-08T07:25:23;22.30;;;18.10;;
13483;SDS011;6814;57.786;12.080;2023-09-08T07:27:49;32.67;;;17.83;;
13483;SDS011;6814;57.786;12.080;2023-09-08T07:30:17;79.80;;;19.87;;
13483;SDS011;6814;57.786;12.080;2023-09-08T07:32:44;70.93;;;20.47;;
13483;SDS011;6814;57.786;12.080;2023-09-08T07:35:10;25.07;;;19.07;;
13483;SDS011;6814;57.786;12.080;2023-09-08T07:37:39;20.37;;;16.53;;
13483;SDS011;6814;57.786;12.080;2023-09-08T07:40:06;24.30;;;15.57;;
13483;SDS011;6814;57.786;12.080;2023-09-08T07:42:34;20.50;;;17.23;;
13483;SDS011;6814;57.786;12.080;2023-09-08T07:45:00;17.83;;;16.00;;
13483;SDS011;6814;57.786;12.080;2023-09-08T07:47:27;16.83;;;15.33;;
13483;SDS011;6814;57.786;12.080;2023-09-08T07:50:12;23.67;;;16.37;;
13483;SDS011;6814;57.786;12.080;2023-09-08T07:52:40;21.60;;;16.50;;
13483;SDS011;6814;57.786;12.080;2023-09-08T07:55:06;18.50;;;15.70;;
13483;SDS011;6814;57.786;12.080;2023-09-08T07:57:32;18.20;;;16.30;;
13483;SDS011;6814;57.786;12.080;2023-09-08T08:00:00;24.90;;;15.53;;
13483;SDS011;6814;57.786;12.080;2023-09-08T08:02:27;18.93;;;14.63;;
13483;SDS011;6814;57.786;12.080;2023-09-08T08:04:53;17.30;;;13.90;;
13483;SDS011;6814;57.786;12.080;2023-09-08T08:07:20;16.47;;;13.20;;
13483;SDS011;6814;57.786;12.080;2023-09-08T08:09:46;14.93;;;13.13;;
13483;SDS011;6814;57.786;12.080;2023-09-08T08:12:12;14.03;;;12.03;;
13483;SDS011;6814;57.786;12.080;2023-09-08T08:14:39;13.17;;;11.37;;
13483;SDS011;6814;57.786;12.080;2023-09-08T08:17:07;11.37;;;10.27;;
13483;SDS011;6814;57.786;12.080;2023-09-08T08:19:33;10.57;;;9.57;;
13483;SDS011;6814;57.786;12.080;2023-09-08T08:22:00;12.00;;;9.83;;
13483;SDS011;6814;57.786;12.080;2023-09-08T08:24:26;11.23;;;9.97;;
13483;SDS011;6814;57.786;12.080;2023-09-08T08:26:52;10.67;;;9.57;;
13483;SDS011;6814;57.786;12.080;2023-09-08T08:29:19;10.40;;;9.30;;
13483;SDS011;6814;57.786;12.080;2023-09-08T08:31:45;9.57;;;8.63;;
13483;SDS011;6814;57.786;12.080;2023-09-08T08:34:13;10.43;;;9.27;;
13483;SDS011;6814;57.786;12.080;2023-09-08T08:36:40;11.57;;;8.90;;
13483;SDS011;6814;57.786;12.080;2023-09-08T08:39:06;10.13;;;9.17;;
13483;SDS011;6814;57.786;12.080;2023-09-08T08:41:33;9.20;;;8.27;;
13483;SDS011;6814;57.786;12.080;2023-09-08T08:44:03;8.70;;;7.87;;
13483;SDS011;6814;57.786;12.080;2023-09-08T08:46:30;8.80;;;8.00;;
13483;SDS011;6814;57.786;12.080;2023-09-08T08:48:56;9.10;;;8.30;;
13483;SDS011;6814;57.786;12.080;2023-09-08T08:51:25;9.07;;;7.80;;
13483;SDS011;6814;57.786;12.080;2023-09-08T08:53:53;8.10;;;7.30;;
13483;SDS011;6814;57.786;12.080;2023-09-08T08:56:20;7.47;;;6.77;;
13483;SDS011;6814;57.786;12.080;2023-09-08T08:58:46;7.40;;;6.50;;
13483;SDS011;6814;57.786;12.080;2023-09-08T09:01:13;8.30;;;6.63;;
13483;SDS011;6814;57.786;12.080;2023-09-08T09:03:42;9.00;;;6.43;;
13483;SDS011;6814;57.786;12.080;2023-09-08T09:06:10;6.43;;;5.63;;
13483;SDS011;6814;57.786;12.080;2023-09-08T09:08:38;7.50;;;6.40;;
13483;SDS011;6814;57.786;12.080;2023-09-08T09:11:04;7.30;;;5.70;;
13483;SDS011;6814;57.786;12.080;2023-09-08T09:13:31;6.63;;;5.33;;
13483;SDS011;6814;57.786;12.080;2023-09-08T09:15:58;6.23;;;5.20;;
13483;SDS011;6814;57.786;12.080;2023-09-08T09:18:25;7.57;;;5.57;;
13483;SDS011;6814;57.786;12.080;2023-09-08T09:20:55;6.77;;;4.90;;
13483;SDS011;6814;57.786;12.080;2023-09-08T09:23:26;5.17;;;4.67;;
13483;SDS011;6814;57.786;12.080;2023-09-08T09:25:55;5.40;;;4.90;;
13483;SDS011;6814;57.786;12.080;2023-09-08T09:28:22;5.53;;;4.60;;
13483;SDS011;6814;57.786;12.080;2023-09-08T09:30:49;4.60;;;4.20;;
13483;SDS011;6814;57.786;12.080;2023-09-08T09:33:16;4.47;;;4.07;;
13483;SDS011;6814;57.786;12.080;2023-09-08T09:35:51;4.20;;;3.90;;
13483;SDS011;6814;57.786;12.080;2023-09-08T09:38:17;4.83;;;4.23;;
13483;SDS011;6814;57.786;12.080;2023-09-08T09:40:44;4.17;;;3.80;;
13483;SDS011;6814;57.786;12.080;2023-09-08T09:43:13;5.47;;;4.93;;
13483;SDS011;6814;57.786;12.080;2023-09-08T09:45:39;4.23;;;3.83;;
13483;SDS011;6814;57.786;12.080;2023-09-08T09:48:07;4.13;;;3.83;;
13483;SDS011;6814;57.786;12.080;2023-09-08T09:50:34;3.90;;;3.60;;
13483;SDS011;6814;57.786;12.080;2023-09-08T09:53:01;4.17;;;3.77;;
13483;SDS011;6814;57.786;12.080;2023-09-08T09:55:30;3.97;;;3.60;;
13483;SDS011;6814;57.786;12.080;2023-09-08T09:57:57;3.70;;;3.40;;
13483;SDS011;6814;57.786;12.080;2023-09-08T10:00:27;3.60;;;3.40;;
13483;SDS011;6814;57.786;12.080;2023-09-08T10:02:53;5.13;;;3.60;;
13483;SDS011;6814;57.786;12.080;2023-09-08T10:05:20;3.60;;;3.30;;
13483;SDS011;6814;57.786;12.080;2023-09-08T10:07:47;3.67;;;3.37;;
13483;SDS011;6814;57.786;12.080;2023-09-08T10:10:13;3.30;;;3.10;;
13483;SDS011;6814;57.786;12.080;2023-09-08T10:12:41;3.90;;;3.20;;
13483;SDS011;6814;57.786;12.080;2023-09-08T10:15:09;3.50;;;3.13;;
13483;SDS011;6814;57.786;12.080;2023-09-08T10:17:41;3.30;;;3.00;;
13483;SDS011;6814;57.786;12.080;2023-09-08T10:20:13;3.27;;;3.00;;
13483;SDS011;6814;57.786;12.080;2023-09-08T10:22:41;3.00;;;2.80;;
13483;SDS011;6814;57.786;12.080;2023-09-08T10:25:13;3.93;;;2.90;;
13483;SDS011;6814;57.786;12.080;2023-09-08T10:27:41;2.47;;;2.27;;
13483;SDS011;6814;57.786;12.080;2023-09-08T10:30:07;3.13;;;2.80;;
13483;SDS011;6814;57.786;12.080;2023-09-08T10:32:35;2.63;;;2.43;;
13483;SDS011;6814;57.786;12.080;2023-09-08T10:35:03;3.10;;;2.80;;
13483;SDS011;6814;57.786;12.080;2023-09-08T10:37:31;3.20;;;2.70;;
13483;SDS011;6814;57.786;12.080;2023-09-08T10:40:05;2.80;;;2.60;;
13483;SDS011;6814;57.786;12.080;2023-09-08T10:42:46;2.50;;;2.40;;
13483;SDS011;6814;57.786;12.080;2023-09-08T10:45:16;2.60;;;2.40;;
13483;SDS011;6814;57.786;12.080;2023-09-08T10:47:54;2.73;;;2.53;;
13483;SDS011;6814;57.786;12.080;2023-09-08T10:50:28;3.37;;;3.07;;
13483;SDS011;6814;57.786;12.080;2023-09-08T10:53:10;2.80;;;2.60;;
13483;SDS011;6814;57.786;12.080;2023-09-08T10:55:42;2.60;;;2.50;;
13483;SDS011;6814;57.786;12.080;2023-09-08T10:58:17;2.80;;;2.60;;
13483;SDS011;6814;57.786;12.080;2023-09-08T11:00:44;3.03;;;2.60;;
13483;SDS011;6814;57.786;12.080;2023-09-08T11:03:11;2.63;;;2.43;;
13483;SDS011;6814;57.786;12.080;2023-09-08T11:05:39;2.90;;;2.70;;
13483;SDS011;6814;57.786;12.080;2023-09-08T11:08:05;3.43;;;2.60;;
13483;SDS011;6814;57.786;12.080;2023-09-08T11:10:33;2.80;;;2.60;;
13483;SDS011;6814;57.786;12.080;2023-09-08T11:13:02;3.00;;;2.80;;
13483;SDS011;6814;57.786;12.080;2023-09-08T11:15:29;2.83;;;2.63;;
13483;SDS011;6814;57.786;12.080;2023-09-08T11:17:55;2.70;;;2.50;;
13483;SDS011;6814;57.786;12.080;2023-09-08T11:20:25;2.60;;;2.40;;
13483;SDS011;6814;57.786;12.080;2023-09-08T11:22:54;4.10;;;2.70;;
13483;SDS011;6814;57.786;12.080;2023-09-08T11:25:20;2.97;;;2.70;;
13483;SDS011;6814;57.786;12.080;2023-09-08T11:27:47;2.77;;;2.60;;
13483;SDS011;6814;57.786;12.080;2023-09-08T11:30:15;3.03;;;2.60;;
13483;SDS011;6814;57.786;12.080;2023-09-08T11:32:41;2.60;;;2.40;;
13483;SDS011;6814;57.786;12.080;2023-09-08T11:35:09;3.10;;;2.80;;
13483;SDS011;6814;57.786;12.080;2023-09-08T11:37:36;3.33;;;3.00;;
13483;SDS011;6814;57.786;12.080;2023-09-08T11:40:05;3.87;;;2.50;;
13483;SDS011;6814;57.786;12.080;2023-09-08T11:42:37;2.60;;;2.40;;
13483;SDS011;6814;57.786;12.080;2023-09-08T11:45:08;2.33;;;2.23;;
13483;SDS011;6814;57.786;12.080;2023-09-08T11:47:35;2.40;;;2.20;;
13483;SDS011;6814;57.786;12.080;2023-09-08T11:50:02;4.27;;;2.50;;
13483;SDS011;6814;57.786;12.080;2023-09-08T11:52:28;2.30;;;2.13;;
13483;SDS011;6814;57.786;12.080;2023-09-08T11:54:54;2.90;;;2.40;;
13483;SDS011;6814;57.786;12.080;2023-09-08T11:57:22;3.13;;;2.50;;
13483;SDS011;6814;57.786;12.080;2023-09-08T11:59:49;4.23;;;2.63;;
13483;SDS011;6814;57.786;12.080;2023-09-08T12:02:16;2.93;;;2.50;;
13483;SDS011;6814;57.786;12.080;2023-09-08T12:04:43;2.90;;;2.27;;
13483;SDS011;6814;57.786;12.080;2023-09-08T12:07:12;2.63;;;2.43;;
13483;SDS011;6814;57.786;12.080;2023-09-08T12:09:39;3.10;;;2.73;;
13483;SDS011;6814;57.786;12.080;2023-09-08T12:12:10;2.63;;;2.50;;
13483;SDS011;6814;57.786;12.080;2023-09-08T12:14:41;3.80;;;2.63;;
13483;SDS011;6814;57.786;12.080;2023-09-08T12:17:08;4.20;;;2.70;;
13483;SDS011;6814;57.786;12.080;2023-09-08T12:19:35;3.20;;;2.97;;
13483;SDS011;6814;57.786;12.080;2023-09-08T12:22:03;3.60;;;2.97;;
13483;SDS011;6814;57.786;12.080;2023-09-08T12:24:45;4.80;;;2.90;;
13483;SDS011;6814;57.786;12.080;2023-09-08T12:27:12;3.20;;;3.00;;
13483;SDS011;6814;57.786;12.080;2023-09-08T12:29:38;3.20;;;2.90;;
13483;SDS011;6814;57.786;12.080;2023-09-08T12:32:06;2.40;;;2.30;;
13483;SDS011;6814;57.786;12.080;2023-09-08T12:34:34;4.00;;;2.70;;
13483;SDS011;6814;57.786;12.080;2023-09-08T12:37:01;3.00;;;2.80;;
13483;SDS011;6814;57.786;12.080;2023-09-08T12:39:27;3.00;;;2.80;;
13483;SDS011;6814;57.786;12.080;2023-09-08T12:41:57;3.83;;;2.57;;
13483;SDS011;6814;57.786;12.080;2023-09-08T12:44:23;3.20;;;2.90;;
13483;SDS011;6814;57.786;12.080;2023-09-08T12:46:49;3.10;;;2.80;;
13483;SDS011;6814;57.786;12.080;2023-09-08T12:49:17;2.67;;;2.43;;
13483;SDS011;6814;57.786;12.080;2023-09-08T12:51:44;3.23;;;2.93;;
13483;SDS011;6814;57.786;12.080;2023-09-08T12:54:10;2.80;;;2.60;;
13483;SDS011;6814;57.786;12.080;2023-09-08T12:56:37;2.90;;;2.70;;
13483;SDS011;6814;57.786;12.080;2023-09-08T12:59:03;3.50;;;3.20;;
13483;SDS011;6814;57.786;12.080;2023-09-08T13:01:29;5.10;;;3.80;;
13483;SDS011;6814;57.786;12.080;2023-09-08T13:03:56;4.13;;;3.80;;
13483;SDS011;6814;57.786;12.080;2023-09-08T13:06:23;4.80;;;4.30;;
13483;SDS011;6814;57.786;12.080;2023-09-08T13:08:50;4.73;;;3.70;;
13483;SDS011;6814;57.786;12.080;2023-09-08T13:11:16;4.10;;;3.80;;
13483;SDS011;6814;57.786;12.080;2023-09-08T13:13:43;4.30;;;4.00;;
13483;SDS011;6814;57.786;12.080;2023-09-08T13:16:09;5.93;;;4.47;;
13483;SDS011;6814;57.786;12.080;2023-09-08T13:18:35;4.53;;;4.10;;
13483;SDS011;6814;57.786;12.080;2023-09-08T13:21:04;4.50;;;4.20;;
13483;SDS011;6814;57.786;12.080;2023-09-08T13:23:32;6.00;;;4.37;;
13483;SDS011;6814;57.786;12.080;2023-09-08T13:25:59;4.20;;;3.80;;
13483;SDS011;6814;57.786;12.080;2023-09-08T13:28:26;6.60;;;4.00;;
13483;SDS011;6814;57.786;12.080;2023-09-08T13:30:52;5.93;;;4.40;;
13483;SDS011;6814;57.786;12.080;2023-09-08T13:33:19;4.15;;;3.65;;
13483;SDS011;6814;57.786;12.080;2023-09-08T13:35:45;5.97;;;4.80;;
13483;SDS011;6814;57.786;12.080;2023-09-08T13:38:12;4.45;;;3.92;;
13483;SDS011;6814;57.786;12.080;2023-09-08T13:40:40;4.60;;;3.55;;
13483;SDS011;6814;57.786;12.080;2023-09-08T13:43:07;5.05;;;3.80;;
13483;SDS011;6814;57.786;12.080;2023-09-08T13:45:36;4.28;;;3.58;;
13483;SDS011;6814;57.786;12.080;2023-09-08T13:48:03;4.28;;;3.88;;
13483;SDS011;6814;57.786;12.080;2023-09-08T13:50:32;4.10;;;3.80;;
13483;SDS011;6814;57.786;12.080;2023-09-08T13:52:59;5.30;;;3.70;;
13483;SDS011;6814;57.786;12.080;2023-09-08T13:55:27;4.97;;;3.60;;
13483;SDS011;6814;57.786;12.080;2023-09-08T13:57:59;3.90;;;3.60;;
13483;SDS011;6814;57.786;12.080;2023-09-08T14:00:29;4.10;;;3.80;;
13483;SDS011;6814;57.786;12.080;2023-09-08T14:02:55;5.93;;;4.07;;
13483;SDS011;6814;57.786;12.080;2023-09-08T14:05:22;4.15;;;3.70;;
13483;SDS011;6814;57.786;12.080;2023-09-08T14:07:48;3.90;;;3.65;;
13483;SDS011;6814;57.786;12.080;2023-09-08T14:10:15;4.70;;;4.15;;
13483;SDS011;6814;57.786;12.080;2023-09-08T14:12:44;4.50;;;4.10;;
13483;SDS011;6814;57.786;12.080;2023-09-08T14:15:13;4.63;;;4.03;;
13483;SDS011;6814;57.786;12.080;2023-09-08T14:17:41;4.45;;;4.00;;
13483;SDS011;6814;57.786;12.080;2023-09-08T14:20:10;7.30;;;4.00;;
13483;SDS011;6814;57.786;12.080;2023-09-08T14:22:37;4.38;;;3.92;;
13483;SDS011;6814;57.786;12.080;2023-09-08T14:25:04;3.92;;;3.63;;
13483;SDS011;6814;57.786;12.080;2023-09-08T14:27:30;8.13;;;4.20;;
13483;SDS011;6814;57.786;12.080;2023-09-08T14:29:58;4.57;;;4.28;;